createdAt,value
2023-03-16T00:00:14.040Z,142.33
2023-03-16T00:00:45.857Z,132.00
2023-03-16T00:01:18.772Z,126.00
2023-03-16T00:01:50.523Z,122.33
2023-03-16T00:02:22.398Z,125.00
2023-03-16T00:02:54.293Z,125.00
2023-03-16T00:03:30.561Z,123.00
2023-03-16T00:04:02.417Z,114.00
2023-03-16T00:04:37.897Z,107.33
2023-03-16T00:05:13.067Z,108.33
2023-03-16T00:05:54.694Z,112.00
2023-03-16T00:06:26.509Z,103.00
2023-03-16T00:06:59.149Z,99.00
2023-03-16T00:07:30.928Z,103.33
2023-03-16T00:08:03.299Z,107.33
2023-03-16T00:08:35.948Z,107.33
2023-03-16T00:09:09.803Z,104.67
2023-03-16T00:09:42.855Z,101.67
2023-03-16T00:10:14.730Z,100.00
2023-03-16T00:10:47.305Z,99.67
2023-03-16T00:11:19.068Z,100.67
2023-03-16T00:11:51.034Z,100.00
2023-03-16T00:12:22.838Z,100.33
2023-03-16T00:12:55.241Z,98.33
2023-03-16T00:13:27.661Z,93.67
2023-03-16T00:13:59.443Z,90.00
2023-03-16T00:14:32.611Z,83.00
2023-03-16T00:15:05.133Z,80.00
2023-03-16T00:15:36.874Z,81.33
2023-03-16T00:16:09.146Z,83.67
2023-03-16T00:16:41.040Z,86.00
2023-03-16T00:17:20.262Z,87.00
2023-03-16T00:17:52.249Z,87.00
2023-03-16T00:18:29.154Z,83.33
2023-03-16T00:19:03.291Z,82.67
2023-03-16T00:19:35.351Z,84.33
2023-03-16T00:20:07.852Z,85.67
2023-03-16T00:20:39.594Z,87.00
2023-03-16T00:21:14.984Z,87.67
2023-03-16T00:21:46.773Z,88.00
2023-03-16T00:22:18.523Z,88.00
2023-03-16T00:22:50.344Z,88.00
2023-03-16T00:23:27.586Z,86.00
2023-03-16T00:23:59.432Z,85.00
2023-03-16T00:24:32.006Z,85.67
2023-03-16T00:25:04.678Z,86.00
2023-03-16T00:25:36.425Z,86.33
2023-03-16T00:26:10.128Z,110.00
2023-03-16T00:26:42.376Z,184.00
2023-03-16T00:27:15.668Z,168.67
2023-03-16T00:27:47.699Z,140.33
2023-03-16T00:28:19.662Z,126.33
2023-03-16T00:28:54.404Z,121.67
2023-03-16T00:29:26.306Z,117.67
2023-03-16T00:29:58.159Z,109.00
2023-03-16T00:30:32.859Z,103.67
2023-03-16T00:31:07.121Z,100.00
2023-03-16T00:31:45.281Z,96.00
2023-03-16T00:32:25.845Z,92.00
2023-03-16T00:32:57.607Z,90.00
2023-03-16T00:33:29.896Z,88.33
2023-03-16T00:34:02.944Z,89.67
2023-03-16T00:34:34.750Z,90.33
2023-03-16T00:35:09.418Z,91.67
2023-03-16T00:35:50.423Z,92.33
2023-03-16T00:36:22.903Z,93.00
2023-03-16T00:36:55.437Z,93.00
2023-03-16T00:37:28.652Z,93.00
2023-03-16T00:38:00.461Z,93.00
2023-03-16T00:38:37.553Z,92.67
2023-03-16T00:39:11.814Z,91.67
2023-03-16T00:39:45.991Z,91.67
2023-03-16T00:40:17.793Z,92.33
2023-03-16T00:40:51.352Z,94.00
2023-03-16T00:41:23.112Z,94.00
2023-03-16T00:41:58.456Z,95.00
2023-03-16T00:42:31.550Z,97.67
2023-03-16T00:43:03.859Z,102.00
2023-03-16T00:43:45.470Z,102.33
2023-03-16T00:44:17.324Z,102.00
2023-03-16T00:44:49.141Z,102.00
2023-03-16T00:45:20.893Z,103.67
2023-03-16T00:45:58.866Z,105.00
2023-03-16T00:46:30.966Z,106.67
2023-03-16T00:47:04.722Z,110.67
2023-03-16T00:47:36.750Z,116.67
2023-03-16T00:48:08.522Z,117.67
2023-03-16T00:48:42.961Z,115.33
2023-03-16T00:49:14.708Z,114.33
2023-03-16T00:49:46.478Z,114.00
2023-03-16T00:50:22.394Z,115.00
2023-03-16T00:50:54.554Z,118.67
2023-03-16T00:51:26.390Z,117.33
2023-03-16T00:51:58.155Z,116.67
2023-03-16T00:52:30.269Z,115.67
2023-03-16T00:53:02.138Z,113.33
2023-03-16T00:53:35.352Z,112.33
2023-03-16T00:54:07.136Z,108.33
2023-03-16T00:54:38.974Z,97.33
2023-03-16T00:55:10.729Z,93.67
2023-03-16T00:55:42.519Z,93.00
2023-03-16T00:56:14.989Z,92.00
2023-03-16T00:56:46.875Z,91.00
2023-03-16T00:57:19.602Z,92.33
2023-03-16T00:57:51.377Z,93.67
2023-03-16T00:58:23.393Z,96.67
2023-03-16T00:58:57.909Z,100.00
2023-03-16T00:59:31.190Z,101.00
2023-03-16T01:00:13.041Z,104.00
2023-03-16T01:00:45.479Z,106.00
2023-03-16T01:01:20.395Z,106.00
2023-03-16T01:01:55.966Z,106.67
2023-03-16T01:02:27.915Z,107.00
2023-03-16T01:02:59.816Z,107.67
2023-03-16T01:03:32.362Z,110.00
2023-03-16T01:04:04.223Z,113.33
2023-03-16T01:04:37.041Z,112.33
2023-03-16T01:05:09.461Z,111.00
2023-03-16T01:05:42.594Z,108.33
2023-03-16T01:06:17.297Z,108.67
2023-03-16T01:06:50.483Z,110.67
2023-03-16T01:07:23.042Z,110.67
2023-03-16T01:07:54.820Z,110.33
2023-03-16T01:08:30.075Z,109.67
2023-03-16T01:09:05.798Z,103.67
2023-03-16T01:09:37.758Z,103.00
2023-03-16T01:10:10.300Z,103.67
2023-03-16T01:10:42.136Z,104.00
2023-03-16T01:11:17.235Z,104.00
2023-03-16T01:11:53.571Z,104.00
2023-03-16T01:12:25.368Z,104.33
2023-03-16T01:12:57.141Z,105.00
2023-03-16T01:13:29.302Z,105.00
2023-03-16T01:14:01.683Z,106.33
2023-03-16T01:14:35.240Z,111.67
2023-03-16T01:15:07.710Z,113.00
2023-03-16T01:15:39.542Z,111.67
2023-03-16T01:16:11.408Z,110.33
2023-03-16T01:16:46.036Z,108.67
2023-03-16T01:17:18.203Z,107.67
2023-03-16T01:17:50.048Z,108.00
2023-03-16T01:18:22.492Z,109.00
2023-03-16T01:18:55.331Z,109.00
2023-03-16T01:19:27.793Z,109.00
2023-03-16T01:19:59.536Z,107.67
2023-03-16T01:20:33.638Z,104.67
2023-03-16T01:21:09.094Z,100.33
2023-03-16T01:21:42.698Z,94.67
2023-03-16T01:22:15.969Z,90.33
2023-03-16T01:22:47.866Z,84.00
2023-03-16T01:23:21.075Z,81.67
2023-03-16T01:23:54.018Z,85.33
2023-03-16T01:24:25.917Z,87.00
2023-03-16T01:24:58.536Z,88.33
2023-03-16T01:25:30.380Z,88.67
2023-03-16T01:26:02.584Z,89.33
2023-03-16T01:26:34.546Z,89.00
2023-03-16T01:27:07.411Z,89.00
2023-03-16T01:27:39.296Z,89.67
2023-03-16T01:28:11.076Z,89.67
2023-03-16T01:28:44.492Z,84.67
2023-03-16T01:29:16.333Z,80.33
2023-03-16T01:29:48.238Z,80.67
2023-03-16T01:30:21.106Z,82.67
2023-03-16T01:30:57.869Z,84.67
2023-03-16T01:31:29.660Z,87.00
2023-03-16T01:32:02.724Z,90.00
2023-03-16T01:32:34.520Z,93.00
2023-03-16T01:33:06.324Z,93.67
2023-03-16T01:33:38.927Z,93.67
2023-03-16T01:34:16.598Z,92.33
2023-03-16T01:34:48.351Z,89.33
2023-03-16T01:35:21.916Z,88.33
2023-03-16T01:35:59.462Z,90.00
2023-03-16T01:36:32.091Z,95.00
2023-03-16T01:37:03.926Z,101.67
2023-03-16T01:37:35.675Z,105.67
2023-03-16T01:38:07.458Z,106.33
2023-03-16T01:38:39.820Z,109.00
2023-03-16T01:39:12.517Z,110.00
2023-03-16T01:39:44.299Z,111.33
2023-03-16T01:40:16.370Z,109.67
2023-03-16T01:40:51.505Z,108.67
2023-03-16T01:41:23.418Z,108.00
2023-03-16T01:41:55.254Z,108.00
2023-03-16T01:42:27.057Z,108.67
2023-03-16T01:43:03.166Z,116.33
2023-03-16T01:43:37.787Z,123.67
2023-03-16T01:44:24.515Z,133.33
2023-03-16T01:45:02.213Z,131.33
2023-03-16T01:46:05.151Z,124.33
2023-03-16T01:46:37.543Z,131.67
2023-03-16T01:47:09.375Z,140.33
2023-03-16T01:47:41.143Z,151.33
2023-03-16T01:48:13.171Z,167.00
2023-03-16T01:49:09.543Z,177.67
2023-03-16T01:49:41.381Z,177.67
2023-03-16T01:50:13.387Z,172.33
2023-03-16T01:50:46.032Z,179.00
2023-03-16T01:51:24.631Z,195.00
2023-03-16T01:52:07.164Z,215.33
2023-03-16T01:52:40.198Z,235.00
2023-03-16T01:53:12.170Z,253.67
2023-03-16T01:53:47.027Z,238.00
2023-03-16T01:54:33.920Z,231.00
2023-03-16T01:55:13.479Z,253.00
2023-03-16T01:55:46.958Z,264.33
2023-03-16T01:56:34.764Z,234.67
2023-03-16T01:57:11.906Z,216.67
2023-03-16T01:57:46.842Z,200.67
2023-03-16T01:58:18.776Z,181.00
2023-03-16T01:58:53.977Z,165.33
2023-03-16T01:59:44.929Z,167.33
2023-03-16T02:00:20.868Z,171.67
2023-03-16T02:00:52.735Z,171.67
2023-03-16T02:01:29.234Z,172.67
2023-03-16T02:02:02.866Z,177.00
2023-03-16T02:02:35.202Z,196.33
2023-03-16T02:03:13.971Z,221.00
2023-03-16T02:03:46.256Z,242.67
2023-03-16T02:04:50.093Z,243.00
2023-03-16T02:05:43.724Z,240.33
2023-03-16T02:06:19.209Z,229.33
2023-03-16T02:06:55.053Z,281.67
2023-03-16T02:07:29.316Z,318.33
2023-03-16T02:08:02.887Z,305.00
2023-03-16T02:08:38.855Z,297.67
2023-03-16T02:09:11.686Z,294.67
2023-03-16T02:09:47.264Z,280.00
2023-03-16T02:10:20.612Z,277.67
2023-03-16T02:10:54.750Z,281.67
2023-03-16T02:11:26.908Z,280.33
2023-03-16T02:11:59.736Z,270.00
2023-03-16T02:12:32.023Z,269.00
2023-03-16T02:13:04.415Z,285.67
2023-03-16T02:13:39.173Z,281.67
2023-03-16T02:14:12.520Z,268.00
2023-03-16T02:14:46.116Z,251.67
2023-03-16T02:15:17.843Z,228.33
2023-03-16T02:15:51.378Z,223.33
2023-03-16T02:16:23.507Z,231.67
2023-03-16T02:16:56.721Z,234.33
2023-03-16T02:17:31.871Z,238.00
2023-03-16T02:18:04.659Z,262.67
2023-03-16T02:18:36.709Z,289.33
2023-03-16T02:19:17.357Z,307.67
2023-03-16T02:20:25.437Z,315.67
2023-03-16T02:21:05.669Z,326.67
2023-03-16T02:21:48.059Z,332.33
2023-03-16T02:22:25.010Z,337.67
2023-03-16T02:22:57.510Z,325.67
2023-03-16T02:23:30.089Z,279.67
2023-03-16T02:24:03.338Z,220.33
2023-03-16T02:24:37.359Z,200.33
2023-03-16T02:25:10.580Z,189.00
2023-03-16T02:25:48.992Z,179.33
2023-03-16T02:26:59.520Z,190.33
2023-03-16T02:27:36.653Z,196.33
2023-03-16T02:28:37.411Z,188.33
2023-03-16T02:29:14.580Z,197.67
2023-03-16T02:29:54.974Z,196.67
2023-03-16T02:30:27.602Z,193.00
2023-03-16T02:31:00.392Z,191.00
2023-03-16T02:31:32.481Z,173.67
2023-03-16T02:32:05.817Z,171.33
2023-03-16T02:32:39.955Z,172.33
2023-03-16T02:33:13.003Z,169.33
2023-03-16T02:33:47.736Z,181.00
2023-03-16T02:34:19.802Z,192.33
2023-03-16T02:34:52.032Z,194.33
2023-03-16T02:35:24.088Z,195.67
2023-03-16T02:35:55.902Z,194.00
2023-03-16T02:36:30.064Z,196.00
2023-03-16T02:37:03.424Z,198.00
2023-03-16T02:37:35.673Z,198.67
2023-03-16T02:38:07.482Z,201.33
2023-03-16T02:38:39.305Z,217.33
2023-03-16T02:39:11.085Z,236.00
2023-03-16T02:39:44.216Z,234.67
2023-03-16T02:40:26.655Z,233.00
2023-03-16T02:41:12.653Z,228.67
2023-03-16T02:41:46.006Z,229.00
2023-03-16T02:42:26.585Z,233.00
2023-03-16T02:43:08.937Z,231.00
2023-03-16T02:43:46.803Z,229.00
2023-03-16T02:44:27.845Z,233.00
2023-03-16T02:45:00.485Z,229.67
2023-03-16T02:45:40.993Z,223.67
2023-03-16T02:46:14.844Z,216.33
2023-03-16T02:46:48.691Z,217.67
2023-03-16T02:47:32.493Z,237.33
2023-03-16T02:48:14.663Z,263.67
2023-03-16T02:49:05.896Z,256.67
2023-03-16T02:49:43.924Z,261.00
2023-03-16T02:50:15.897Z,268.33
2023-03-16T02:50:51.544Z,274.33
2023-03-16T02:51:23.310Z,275.00
2023-03-16T02:51:57.520Z,286.67
2023-03-16T02:52:29.300Z,279.00
2023-03-16T02:53:01.032Z,263.33
2023-03-16T02:53:32.808Z,258.00
2023-03-16T02:54:22.939Z,257.00
2023-03-16T02:54:55.676Z,255.67
2023-03-16T02:55:27.535Z,259.67
2023-03-16T02:55:59.267Z,268.33
2023-03-16T02:56:31.060Z,273.00
2023-03-16T02:57:02.848Z,274.33
2023-03-16T02:57:34.844Z,276.67
2023-03-16T02:58:06.831Z,272.33
2023-03-16T02:58:38.551Z,268.33
2023-03-16T02:59:10.373Z,275.33
2023-03-16T02:59:42.170Z,279.00
2023-03-16T03:00:18.995Z,280.33
2023-03-16T03:00:51.042Z,274.33
2023-03-16T03:01:23.266Z,262.33
2023-03-16T03:01:55.050Z,252.33
2023-03-16T03:02:26.882Z,244.00
2023-03-16T03:02:58.630Z,244.33
2023-03-16T03:03:30.691Z,246.00
2023-03-16T03:04:04.245Z,246.67
2023-03-16T03:04:35.987Z,239.67
2023-03-16T03:05:08.564Z,235.67
2023-03-16T03:05:40.520Z,216.00
2023-03-16T03:06:12.298Z,195.00
2023-03-16T03:06:44.374Z,176.67
2023-03-16T03:07:16.637Z,160.33
2023-03-16T03:08:07.209Z,156.00
2023-03-16T03:08:39.061Z,161.67
2023-03-16T03:09:11.813Z,176.67
2023-03-16T03:09:43.927Z,177.33
2023-03-16T03:10:16.080Z,190.67
2023-03-16T03:10:47.855Z,197.67
2023-03-16T03:11:19.827Z,203.00
2023-03-16T03:11:51.844Z,207.00
2023-03-16T03:12:23.771Z,220.00
2023-03-16T03:12:55.550Z,239.67
2023-03-16T03:13:27.865Z,249.33
2023-03-16T03:13:59.692Z,257.67
2023-03-16T03:14:31.412Z,268.33
2023-03-16T03:15:04.020Z,257.00
2023-03-16T03:15:36.097Z,246.33
2023-03-16T03:16:08.047Z,248.00
2023-03-16T03:16:39.875Z,266.67
2023-03-16T03:17:13.412Z,274.00
2023-03-16T03:17:46.680Z,267.67
2023-03-16T03:18:18.505Z,268.33
2023-03-16T03:18:52.803Z,270.33
2023-03-16T03:19:24.548Z,259.00
2023-03-16T03:20:00.737Z,255.00
2023-03-16T03:20:33.304Z,252.67
2023-03-16T03:21:05.649Z,249.33
2023-03-16T03:21:37.407Z,248.00
2023-03-16T03:22:09.206Z,253.67
2023-03-16T03:22:41.207Z,280.67
2023-03-16T03:23:15.430Z,296.33
2023-03-16T03:23:47.452Z,308.33
2023-03-16T03:24:19.237Z,293.33
2023-03-16T03:24:51.564Z,273.67
2023-03-16T03:25:23.755Z,270.00
2023-03-16T03:25:59.547Z,267.67
2023-03-16T03:26:31.368Z,264.33
2023-03-16T03:27:06.051Z,263.00
2023-03-16T03:27:38.737Z,260.67
2023-03-16T03:28:11.537Z,250.00
2023-03-16T03:28:46.490Z,230.67
2023-03-16T03:29:18.574Z,230.67
2023-03-16T03:29:50.338Z,226.67
2023-03-16T03:30:25.876Z,228.33
2023-03-16T03:30:57.857Z,234.67
2023-03-16T03:31:29.684Z,234.67
2023-03-16T03:32:02.354Z,228.33
2023-03-16T03:32:34.105Z,230.67
2023-03-16T03:33:06.033Z,235.33
2023-03-16T03:33:37.907Z,265.33
2023-03-16T03:34:10.072Z,311.00
2023-03-16T03:34:42.646Z,347.67
2023-03-16T03:35:16.131Z,351.33
2023-03-16T03:35:48.502Z,336.67
2023-03-16T03:36:22.249Z,333.00
2023-03-16T03:36:54.277Z,336.33
2023-03-16T03:37:26.096Z,338.00
2023-03-16T03:37:58.025Z,342.00
2023-03-16T03:38:29.813Z,347.67
2023-03-16T03:39:05.200Z,342.00
2023-03-16T03:39:37.115Z,341.00
2023-03-16T03:40:12.063Z,333.33
2023-03-16T03:40:43.796Z,330.00
2023-03-16T03:41:15.625Z,328.33
2023-03-16T03:41:47.370Z,318.00
2023-03-16T03:42:19.525Z,316.67
2023-03-16T03:42:51.640Z,317.00
2023-03-16T03:43:23.366Z,316.33
2023-03-16T03:43:55.119Z,289.33
2023-03-16T03:44:27.177Z,265.00
2023-03-16T03:44:58.908Z,289.67
2023-03-16T03:45:30.737Z,355.33
2023-03-16T03:46:04.154Z,378.33
2023-03-16T03:46:36.099Z,362.00
2023-03-16T03:47:08.128Z,348.33
2023-03-16T03:47:41.326Z,335.67
2023-03-16T03:48:13.425Z,331.67
2023-03-16T03:48:45.197Z,329.00
2023-03-16T03:49:17.105Z,310.67
2023-03-16T03:49:48.992Z,284.33
2023-03-16T03:50:21.538Z,274.67
2023-03-16T03:50:53.888Z,258.67
2023-03-16T03:51:25.761Z,251.67
2023-03-16T03:51:59.329Z,244.67
2023-03-16T03:52:31.114Z,253.33
2023-03-16T03:53:02.892Z,237.00
2023-03-16T03:53:34.628Z,241.67
2023-03-16T03:54:06.502Z,259.67
2023-03-16T03:54:38.298Z,273.67
2023-03-16T03:55:10.888Z,297.33
2023-03-16T03:55:42.650Z,303.00
2023-03-16T03:56:14.445Z,286.00
2023-03-16T03:56:46.277Z,249.67
2023-03-16T03:57:19.105Z,251.00
2023-03-16T03:57:51.583Z,249.33
2023-03-16T03:58:23.445Z,255.67
2023-03-16T03:58:55.240Z,253.67
2023-03-16T03:59:27.402Z,230.33
2023-03-16T03:59:59.131Z,210.33
2023-03-16T04:00:31.228Z,202.67
2023-03-16T04:01:02.976Z,178.33
2023-03-16T04:01:34.791Z,155.00
2023-03-16T04:02:06.921Z,147.00
2023-03-16T04:02:38.990Z,148.33
2023-03-16T04:03:10.984Z,143.00
2023-03-16T04:03:45.177Z,149.67
2023-03-16T04:04:17.026Z,166.67
2023-03-16T04:04:49.068Z,181.67
2023-03-16T04:05:22.024Z,182.33
2023-03-16T04:05:53.748Z,173.33
2023-03-16T04:06:25.524Z,160.00
2023-03-16T04:06:57.277Z,152.67
2023-03-16T04:07:29.308Z,141.33
2023-03-16T04:08:01.082Z,136.33
2023-03-16T04:08:32.984Z,135.33
2023-03-16T04:09:05.562Z,132.33
2023-03-16T04:09:37.518Z,146.67
2023-03-16T04:10:09.975Z,173.67
2023-03-16T04:10:41.731Z,214.33
2023-03-16T04:11:13.584Z,247.33
2023-03-16T04:11:45.400Z,221.33
2023-03-16T04:12:17.349Z,211.67
2023-03-16T04:12:49.127Z,194.00
2023-03-16T04:13:20.859Z,157.33
2023-03-16T04:13:53.564Z,145.00
2023-03-16T04:14:25.276Z,139.33
2023-03-16T04:14:57.134Z,129.33
2023-03-16T04:15:28.961Z,154.00
2023-03-16T04:16:04.904Z,158.67
2023-03-16T04:16:36.895Z,149.67
2023-03-16T04:17:09.080Z,142.33
2023-03-16T04:17:40.856Z,131.00
2023-03-16T04:18:13.092Z,131.33
2023-03-16T04:18:46.273Z,133.00
2023-03-16T04:19:18.066Z,134.33
2023-03-16T04:19:50.253Z,134.67
2023-03-16T04:20:23.281Z,126.33
2023-03-16T04:20:55.489Z,123.00
2023-03-16T04:21:27.576Z,122.67
2023-03-16T04:21:59.342Z,123.33
2023-03-16T04:22:31.189Z,117.33
2023-03-16T04:23:03.004Z,107.67
2023-03-16T04:23:34.884Z,102.33
2023-03-16T04:24:06.853Z,106.67
2023-03-16T04:24:38.783Z,116.33
2023-03-16T04:25:12.352Z,116.33
2023-03-16T04:25:45.435Z,102.00
2023-03-16T04:26:18.007Z,99.00
2023-03-16T04:26:49.840Z,102.67
2023-03-16T04:27:21.722Z,108.67
2023-03-16T04:27:54.119Z,116.00
2023-03-16T04:28:26.852Z,123.33
2023-03-16T04:28:59.200Z,144.33
2023-03-16T04:29:32.089Z,143.67
2023-03-16T04:30:11.327Z,137.00
2023-03-16T04:30:43.089Z,119.67
2023-03-16T04:31:14.925Z,113.00
2023-03-16T04:31:46.987Z,107.67
2023-03-16T04:32:18.703Z,108.00
2023-03-16T04:32:51.426Z,103.00
2023-03-16T04:33:23.229Z,103.33
2023-03-16T04:33:54.989Z,112.67
2023-03-16T04:34:27.024Z,194.67
2023-03-16T04:34:58.737Z,225.00
2023-03-16T04:35:31.928Z,193.67
2023-03-16T04:36:05.868Z,162.00
2023-03-16T04:36:39.006Z,155.33
2023-03-16T04:37:10.921Z,153.67
2023-03-16T04:37:42.708Z,151.33
2023-03-16T04:38:14.870Z,144.33
2023-03-16T04:38:46.646Z,129.00
2023-03-16T04:39:19.937Z,116.67
2023-03-16T04:39:51.850Z,106.00
2023-03-16T04:40:23.767Z,98.00
2023-03-16T04:40:56.378Z,96.00
2023-03-16T04:41:28.145Z,101.33
2023-03-16T04:41:59.913Z,107.67
2023-03-16T04:42:31.676Z,112.00
2023-03-16T04:43:03.513Z,109.00
2023-03-16T04:43:35.517Z,103.00
2023-03-16T04:44:07.969Z,100.00
2023-03-16T04:44:44.422Z,98.67
2023-03-16T04:45:20.478Z,102.33
2023-03-16T04:45:52.262Z,105.67
2023-03-16T04:46:24.997Z,107.00
2023-03-16T04:46:56.735Z,107.33
2023-03-16T04:47:28.520Z,108.33
2023-03-16T04:48:00.539Z,109.00
2023-03-16T04:48:32.558Z,109.00
2023-03-16T04:49:04.350Z,108.00
2023-03-16T04:49:36.197Z,106.00
2023-03-16T04:50:09.002Z,105.00
2023-03-16T04:50:41.045Z,105.00
2023-03-16T04:51:12.970Z,104.00
2023-03-16T04:51:44.774Z,104.33
2023-03-16T04:52:16.529Z,106.33
2023-03-16T04:52:48.542Z,116.00
2023-03-16T04:53:20.359Z,160.00
2023-03-16T04:53:54.128Z,184.33
2023-03-16T04:54:25.881Z,204.67
2023-03-16T04:54:57.729Z,262.00
2023-03-16T04:55:29.739Z,253.00
2023-03-16T04:56:01.684Z,245.00
2023-03-16T04:56:33.921Z,236.33
2023-03-16T04:57:05.990Z,217.33
2023-03-16T04:57:37.914Z,192.00
2023-03-16T04:58:09.686Z,183.33
2023-03-16T04:58:41.708Z,190.67
2023-03-16T04:59:13.593Z,199.67
2023-03-16T04:59:45.564Z,212.67
2023-03-16T05:00:21.185Z,213.33
2023-03-16T05:00:54.382Z,214.00
2023-03-16T05:01:26.373Z,346.33
2023-03-16T05:01:58.294Z,346.67
2023-03-16T05:02:30.149Z,315.00
2023-03-16T05:03:02.825Z,290.67
2023-03-16T05:03:34.952Z,273.33
2023-03-16T05:04:06.689Z,249.33
2023-03-16T05:04:38.482Z,231.33
2023-03-16T05:05:10.520Z,215.67
2023-03-16T05:05:42.641Z,186.33
2023-03-16T05:06:14.534Z,169.33
2023-03-16T05:06:46.313Z,156.00
2023-03-16T05:07:18.154Z,153.00
2023-03-16T05:07:50.612Z,158.33
2023-03-16T05:08:22.639Z,177.67
2023-03-16T05:08:54.398Z,174.00
2023-03-16T05:09:26.177Z,171.33
2023-03-16T05:09:57.997Z,174.67
2023-03-16T05:10:30.046Z,177.67
2023-03-16T05:11:02.092Z,191.00
2023-03-16T05:11:33.894Z,241.33
2023-03-16T05:12:05.932Z,281.33
2023-03-16T05:12:37.741Z,249.33
2023-03-16T05:13:09.540Z,222.00
2023-03-16T05:13:41.275Z,209.00
2023-03-16T05:14:13.017Z,180.00
2023-03-16T05:14:44.822Z,156.33
2023-03-16T05:15:16.647Z,157.00
2023-03-16T05:15:48.456Z,177.67
2023-03-16T05:16:20.253Z,182.67
2023-03-16T05:16:52.346Z,190.67
2023-03-16T05:17:25.567Z,210.33
2023-03-16T05:17:57.821Z,210.67
2023-03-16T05:18:29.646Z,210.00
2023-03-16T05:19:02.108Z,216.33
2023-03-16T05:19:34.053Z,244.33
2023-03-16T05:20:09.267Z,329.33
2023-03-16T05:20:42.199Z,305.67
2023-03-16T05:21:14.909Z,270.33
2023-03-16T05:21:46.715Z,255.33
2023-03-16T05:22:18.569Z,244.33
2023-03-16T05:22:50.940Z,237.67
2023-03-16T05:23:23.812Z,230.67
2023-03-16T05:23:55.662Z,228.33
2023-03-16T05:24:27.431Z,229.33
2023-03-16T05:25:03.493Z,253.67
2023-03-16T05:25:35.368Z,306.67
2023-03-16T05:26:07.768Z,331.00
2023-03-16T05:26:40.169Z,329.67
2023-03-16T05:27:12.007Z,287.33
2023-03-16T05:27:51.935Z,262.67
2023-03-16T05:28:23.803Z,250.33
2023-03-16T05:28:55.697Z,245.67
2023-03-16T05:29:27.434Z,245.00
2023-03-16T05:29:59.241Z,252.33
2023-03-16T05:30:31.528Z,279.33
2023-03-16T05:31:03.979Z,275.33
2023-03-16T05:31:37.510Z,256.67
2023-03-16T05:32:09.224Z,223.67
2023-03-16T05:32:41.039Z,195.67
2023-03-16T05:33:13.237Z,178.00
2023-03-16T05:33:44.992Z,181.33
2023-03-16T05:34:16.772Z,187.00
2023-03-16T05:34:48.469Z,196.00
2023-03-16T05:35:22.486Z,206.33
2023-03-16T05:35:58.157Z,215.00
2023-03-16T05:36:30.075Z,275.33
2023-03-16T05:37:01.853Z,335.33
2023-03-16T05:37:38.146Z,352.33
2023-03-16T05:38:13.179Z,345.00
2023-03-16T05:38:45.776Z,323.00
2023-03-16T05:39:17.528Z,325.00
2023-03-16T05:39:49.348Z,321.33
2023-03-16T05:40:23.228Z,291.67
2023-03-16T05:40:57.736Z,281.00
2023-03-16T05:41:30.230Z,392.00
2023-03-16T05:42:01.965Z,352.00
2023-03-16T05:42:34.883Z,300.33
2023-03-16T05:43:06.681Z,295.00
2023-03-16T05:43:38.449Z,291.33
2023-03-16T05:44:10.779Z,311.33
2023-03-16T05:44:42.514Z,321.67
2023-03-16T05:45:16.497Z,302.00
2023-03-16T05:45:48.288Z,283.67
2023-03-16T05:46:20.936Z,253.00
2023-03-16T05:46:53.167Z,235.33
2023-03-16T05:47:25.040Z,222.33
2023-03-16T05:47:56.802Z,225.33
2023-03-16T05:48:28.647Z,227.00
2023-03-16T05:49:00.458Z,244.00
2023-03-16T05:49:32.484Z,255.00
2023-03-16T05:50:05.742Z,317.33
2023-03-16T05:50:37.660Z,356.67
2023-03-16T05:51:09.566Z,333.67
2023-03-16T05:51:41.431Z,362.33
2023-03-16T05:52:13.920Z,378.00
2023-03-16T05:52:46.433Z,356.33
2023-03-16T05:53:19.224Z,365.67
2023-03-16T05:53:50.982Z,367.00
2023-03-16T05:54:23.475Z,357.33
2023-03-16T05:54:55.234Z,331.33
2023-03-16T05:55:27.102Z,313.00
2023-03-16T05:55:59.342Z,282.00
2023-03-16T05:56:31.269Z,286.33
2023-03-16T05:57:03.107Z,291.67
2023-03-16T05:57:34.898Z,290.33
2023-03-16T05:58:06.703Z,285.67
2023-03-16T05:58:38.532Z,286.33
2023-03-16T05:59:10.311Z,289.00
2023-03-16T05:59:42.088Z,295.00
2023-03-16T06:00:16.375Z,306.00
2023-03-16T06:00:48.392Z,307.33
2023-03-16T06:01:21.486Z,333.67
2023-03-16T06:01:53.353Z,362.33
2023-03-16T06:02:25.627Z,390.33
2023-03-16T06:02:57.716Z,396.00
2023-03-16T06:03:29.538Z,385.67
2023-03-16T06:04:03.324Z,365.33
2023-03-16T06:04:35.179Z,349.00
2023-03-16T06:05:07.710Z,346.33
2023-03-16T06:05:39.500Z,344.00
2023-03-16T06:06:11.281Z,351.00
2023-03-16T06:06:43.716Z,366.00
2023-03-16T06:07:15.444Z,359.00
2023-03-16T06:07:48.229Z,360.00
2023-03-16T06:08:19.957Z,355.67
2023-03-16T06:08:52.471Z,357.00
2023-03-16T06:09:24.204Z,383.33
2023-03-16T06:09:55.990Z,436.67
2023-03-16T06:10:28.032Z,423.67
2023-03-16T06:10:59.956Z,401.67
2023-03-16T06:11:33.032Z,410.33
2023-03-16T06:12:04.900Z,428.67
2023-03-16T06:12:36.728Z,441.33
2023-03-16T06:13:08.513Z,458.67
2023-03-16T06:13:41.101Z,477.00
2023-03-16T06:14:12.860Z,474.67
2023-03-16T06:14:44.762Z,474.00
2023-03-16T06:15:16.600Z,479.67
2023-03-16T06:15:49.400Z,480.67
2023-03-16T06:16:21.290Z,484.67
2023-03-16T06:16:53.049Z,487.33
2023-03-16T06:17:24.879Z,483.33
2023-03-16T06:17:56.906Z,479.67
2023-03-16T06:18:29.157Z,474.67
2023-03-16T06:19:01.090Z,469.00
2023-03-16T06:19:32.871Z,465.67
2023-03-16T06:20:11.128Z,462.67
2023-03-16T06:20:43.470Z,465.67
2023-03-16T06:21:15.287Z,459.33
2023-03-16T06:22:19.754Z,450.33
2023-03-16T06:22:51.626Z,452.00
2023-03-16T06:23:23.765Z,453.00
2023-03-16T06:23:56.123Z,450.33
2023-03-16T06:24:27.950Z,449.00
2023-03-16T06:24:59.714Z,449.00
2023-03-16T06:25:31.496Z,449.33
2023-03-16T06:26:03.333Z,451.00
2023-03-16T06:26:36.428Z,451.67
2023-03-16T06:27:08.419Z,450.67
2023-03-16T06:27:40.631Z,449.67
2023-03-16T06:28:12.448Z,449.00
2023-03-16T06:28:44.212Z,450.33
2023-03-16T06:29:16.051Z,456.00
2023-03-16T06:29:48.038Z,461.67
2023-03-16T06:30:19.917Z,461.33
2023-03-16T06:30:55.836Z,459.67
2023-03-16T06:31:28.132Z,457.67
2023-03-16T06:32:00.133Z,456.33
2023-03-16T06:32:32.047Z,456.00
2023-03-16T06:33:04.014Z,454.33
2023-03-16T06:33:35.797Z,435.33
2023-03-16T06:34:07.931Z,412.33
2023-03-16T06:34:40.497Z,405.67
2023-03-16T06:35:12.805Z,411.33
2023-03-16T06:35:44.645Z,421.00
2023-03-16T06:36:16.462Z,425.00
2023-03-16T06:36:48.432Z,426.33
2023-03-16T06:37:20.217Z,428.33
2023-03-16T06:37:52.189Z,431.00
2023-03-16T06:38:23.968Z,415.67
2023-03-16T06:38:55.755Z,381.67
2023-03-16T06:39:27.538Z,384.67
2023-03-16T06:39:59.489Z,414.33
2023-03-16T06:40:31.894Z,415.33
2023-03-16T06:41:03.764Z,410.33
2023-03-16T06:41:35.980Z,408.67
2023-03-16T06:42:07.836Z,411.00
2023-03-16T06:42:39.678Z,411.33
2023-03-16T06:43:12.056Z,413.67
2023-03-16T06:43:43.833Z,414.67
2023-03-16T06:44:15.600Z,423.33
2023-03-16T06:44:47.399Z,438.33
2023-03-16T06:45:22.255Z,424.00
2023-03-16T06:45:54.121Z,389.33
2023-03-16T06:46:26.033Z,374.67
2023-03-16T06:46:58.508Z,368.00
2023-03-16T06:47:30.279Z,369.00
2023-03-16T06:48:02.174Z,374.00
2023-03-16T06:48:33.952Z,382.67
2023-03-16T06:49:05.858Z,387.33
2023-03-16T06:49:37.818Z,380.00
2023-03-16T06:50:11.898Z,371.67
2023-03-16T06:50:45.624Z,374.33
2023-03-16T06:51:17.394Z,394.00
2023-03-16T06:51:49.491Z,415.67
2023-03-16T06:52:22.073Z,421.67
2023-03-16T06:52:53.913Z,420.00
2023-03-16T06:53:26.293Z,416.67
2023-03-16T06:53:58.245Z,397.33
2023-03-16T06:54:32.431Z,371.00
2023-03-16T06:55:04.943Z,405.67
2023-03-16T06:55:36.664Z,431.33
2023-03-16T06:56:08.532Z,419.33
2023-03-16T06:56:40.395Z,413.33
2023-03-16T06:57:12.343Z,399.67
2023-03-16T06:57:44.150Z,378.67